Time;durP1;ratioP1;P1;durP2;ratioP2;P2;SDS_P1;SDS_P2;PMS_P1;PMS_P2;Temp;Humidity;BMP_temperature;BMP_pressure;BME280_temperature;BME280_humidity;BME280_pressure;Samples;Min_cycle;Max_cycle;Signal;HPM_P1;HPM_P2
2022/09/23 00:01:34;;;;;;;;;2.00;2.00;;;25.33;101232.20;;;;117034;1194;24789;-56
2022/09/23 00:04:03;;;;;;;;;2.00;2.00;;;25.33;101235.52;;;;117034;1191;25442;-55
2022/09/23 00:06:32;;;;;;;;;4.00;4.00;;;25.32;101232.80;;;;117076;1193;24671;-56
2022/09/23 00:09:00;;;;;;;;;3.33;2.67;;;25.33;101233.90;;;;116996;1193;25560;-56
2022/09/23 00:11:29;;;;;;;;;5.67;2.33;;;25.32;101233.13;;;;117047;1193;25558;-57
2022/09/23 00:13:59;;;;;;;;;5.00;3.25;;;25.31;101234.77;;;;117050;1193;24810;-56
2022/09/23 00:16:32;;;;;;;;;2.00;2.00;;;25.30;101233.94;;;;117071;1193;25277;-57
2022/09/23 00:19:03;;;;;;;;;2.67;2.00;;;25.31;101235.67;;;;117058;1193;25715;-57
2022/09/23 00:21:31;;;;;;;;;1.50;1.50;;;25.32;101232.56;;;;117091;1193;25496;-57
2022/09/23 00:24:01;;;;;;;;;3.00;3.00;;;25.32;101231.70;;;;117041;1193;24687;-56
2022/09/23 00:26:30;;;;;;;;;3.00;3.00;;;25.31;101230.44;;;;117138;1192;24809;-57
2022/09/23 00:28:58;;;;;;;;;2.75;2.50;;;25.30;101229.48;;;;117076;1193;25659;-56
2022/09/23 00:31:27;;;;;;;;;2.00;2.00;;;25.31;101226.45;;;;117186;1192;25524;-57
2022/09/23 00:33:59;;;;;;;;;2.00;2.00;;;25.29;101228.92;;;;117052;1193;25403;-56
2022/09/23 00:36:29;;;;;;;;;2.00;2.00;;;25.29;101233.22;;;;117121;1193;25841;-57
2022/09/23 00:38:58;;;;;;;;;3.00;2.00;;;25.30;101230.64;;;;117122;1192;24893;-56
2022/09/23 00:41:27;;;;;;;;;4.25;1.75;;;25.30;101233.73;;;;117089;1193;24921;-57
2022/09/23 00:43:57;;;;;;;;;1.00;0.00;;;25.30;101236.17;;;;117063;1193;25598;-56
2022/09/23 00:46:36;;;;;;;;;3.00;3.00;;;25.30;101237.88;;;;117080;1193;25388;-56
2022/09/23 00:49:14;;;;;;;;;2.33;2.00;;;25.30;101235.77;;;;117124;1192;25468;-57
2022/09/23 00:51:49;;;;;;;;;3.50;3.50;;;25.29;101232.68;;;;117093;1192;25678;-56
2022/09/23 00:54:18;;;;;;;;;2.00;2.00;;;25.30;101234.33;;;;117129;1193;25226;-57
2022/09/23 00:56:47;;;;;;;;;2.67;2.67;;;25.31;101233.79;;;;117135;1193;25668;-56
2022/09/23 00:59:17;;;;;;;;;1.75;1.75;;;25.29;101232.72;;;;117064;1192;25271;-57
2022/09/23 01:01:48;;;;;;;;;2.00;1.50;;;25.28;101232.08;;;;117109;1193;25725;-57
2022/09/23 01:04:18;;;;;;;;;3.00;3.00;;;25.28;101229.92;;;;117137;1192;24965;-57
2022/09/23 01:06:47;;;;;;;;;1.00;1.00;;;25.29;101228.96;;;;117076;1193;25218;-57
2022/09/23 01:09:16;;;;;;;;;2.50;2.00;;;25.29;101232.59;;;;117136;1192;24991;-56
2022/09/23 01:12:11;;;;;;;;;3.00;2.00;;;25.27;101231.99;;;;117068;1193;24935;-56
2022/09/23 01:15:17;;;;;;;;;2.33;2.00;;;25.29;101234.89;;;;117119;1193;24806;-56
2022/09/23 01:18:28;;;;;;;;;2.00;2.00;;;25.32;101231.80;;;;117123;1192;24871;-56
2022/09/23 01:20:59;;;;;;;;;1.00;1.00;;;25.37;101231.98;;;;117089;1193;24873;-56
2022/09/23 01:23:46;;;;;;;;;2.00;2.00;;;25.34;101232.86;;;;117114;1192;24726;-56
2022/09/23 01:26:27;;;;;;;;;2.50;2.00;;;25.32;101238.02;;;;117098;1192;25424;-57
2022/09/23 01:29:32;;;;;;;;;2.75;1.50;;;25.28;101242.78;;;;117123;1193;25257;-56
2022/09/23 01:32:30;;;;;;;;;3.25;2.00;;;25.28;101245.55;;;;117121;1192;25069;-56
2022/09/23 01:35:04;;;;;;;;;2.75;2.75;;;25.28;101241.98;;;;117101;1193;25009;-57
2022/09/23 01:37:50;;;;;;;;;1.75;1.50;;;25.27;101242.75;;;;117162;1192;25525;-57
2022/09/23 01:40:26;;;;;;;;;2.33;2.33;;;25.28;101247.13;;;;117137;1191;25681;-57
2022/09/23 01:43:10;;;;;;;;;1.00;1.00;;;25.27;101243.88;;;;117115;1193;25482;-57
2022/09/23 01:45:52;;;;;;;;;2.00;2.00;;;25.27;101245.83;;;;117105;1193;25656;-56
2022/09/23 01:48:31;;;;;;;;;3.00;2.00;;;25.30;101242.73;;;;117111;1193;25293;-57
2022/09/23 01:51:08;;;;;;;;;2.00;2.00;;;25.32;101244.89;;;;117062;1193;25486;-56
2022/09/23 01:53:55;;;;;;;;;1.00;1.00;;;25.32;101246.10;;;;117034;1193;25749;-56
2022/09/23 01:56:50;;;;;;;;;2.00;2.00;;;25.32;101245.31;;;;117144;1193;25687;-57
2022/09/23 01:59:25;;;;;;;;;2.00;1.75;;;25.34;101246.90;;;;117123;1192;25896;-57
2022/09/23 02:01:58;;;;;;;;;2.00;2.00;;;25.34;101247.97;;;;117078;1193;24837;-57
2022/09/23 02:04:32;;;;;;;;;2.00;2.00;;;25.34;101247.08;;;;117038;1193;24831;-57
2022/09/23 02:07:33;;;;;;;;;6.00;2.33;;;25.32;101247.27;;;;117060;1193;24851;-61
2022/09/23 02:10:24;;;;;;;;;2.00;2.00;;;25.37;101243.95;;;;116961;1193;24813;-59
2022/09/23 02:12:58;;;;;;;;;4.00;3.00;;;25.40;101241.70;;;;117074;1191;24910;-54
2022/09/23 02:15:41;;;;;;;;;3.50;3.00;;;25.37;101242.07;;;;117023;1193;25001;-56
2022/09/23 02:18:27;;;;;;;;;1.50;1.50;;;25.35;101239.63;;;;117031;1193;25410;-58
2022/09/23 02:21:01;;;;;;;;;3.00;2.67;;;25.35;101241.38;;;;117074;1193;25378;-56
2022/09/23 02:23:43;;;;;;;;;1.00;1.00;;;25.33;101244.88;;;;117065;1193;24951;-56
2022/09/23 02:26:18;;;;;;;;;1.00;1.00;;;25.32;101251.17;;;;117021;1193;25435;-59
2022/09/23 02:28:59;;;;;;;;;1.00;1.00;;;25.29;101251.58;;;;117066;1193;25499;-56
2022/09/23 02:31:39;;;;;;;;;3.00;3.00;;;25.27;101253.70;;;;117020;1191;25275;-56
2022/09/23 02:34:17;;;;;;;;;2.67;2.67;;;25.27;101254.05;;;;117036;1193;25641;-56
2022/09/23 02:37:22;;;;;;;;;4.00;2.00;;;25.26;101256.11;;;;117018;1193;25654;-56
2022/09/23 02:39:59;;;;;;;;;2.00;2.00;;;25.32;101254.92;;;;116966;1193;24777;-56
2022/09/23 02:42:49;;;;;;;;;3.33;2.33;;;25.32;101256.37;;;;117059;1193;24752;-56
2022/09/23 02:45:17;;;;;;;;;2.00;2.00;;;25.30;101256.25;;;;117046;1193;25339;-57
2022/09/23 02:47:52;;;;;;;;;2.00;2.00;;;25.28;101255.09;;;;117048;1193;24993;-57
2022/09/23 02:50:21;;;;;;;;;3.50;2.50;;;25.25;101251.58;;;;117032;1192;25682;-56
2022/09/23 02:52:50;;;;;;;;;1.25;1.25;;;25.23;101251.56;;;;117042;1192;25484;-56
2022/09/23 02:55:21;;;;;;;;;2.25;2.25;;;25.24;101249.30;;;;117099;1192;24793;-57
2022/09/23 02:57:51;;;;;;;;;3.75;3.75;;;25.22;101250.88;;;;117110;1193;25129;-57
2022/09/23 03:00:19;;;;;;;;;2.00;1.67;;;25.22;101253.06;;;;117033;1192;24980;-57
2022/09/23 03:03:19;;;;;;;;;3.00;2.00;;;25.21;101250.39;;;;117039;1194;25734;-57
2022/09/23 03:05:58;;;;;;;;;4.50;3.00;;;25.28;101252.05;;;;117111;1193;24966;-56
2022/09/23 03:08:52;;;;;;;;;3.00;3.00;;;25.31;101255.24;;;;117118;1193;26239;-57
2022/09/23 03:11:21;;;;;;;;;2.25;2.00;;;25.34;101257.27;;;;117088;1192;25044;-57
2022/09/23 03:14:16;;;;;;;;;2.00;2.00;;;25.31;101257.67;;;;117061;1193;25006;-57
2022/09/23 03:16:58;;;;;;;;;2.50;2.50;;;25.29;101257.42;;;;117152;1191;25575;-56
2022/09/23 03:19:40;;;;;;;;;3.33;3.00;;;25.26;101257.48;;;;117149;1193;24986;-56
2022/09/23 03:22:36;;;;;;;;;1.00;1.00;;;25.23;101254.42;;;;117169;1191;25243;-56
2022/09/23 03:25:09;;;;;;;;;2.00;1.25;;;25.30;101254.46;;;;117048;1193;25608;-56
2022/09/23 03:27:41;;;;;;;;;2.00;2.00;;;25.31;101253.16;;;;117058;1192;25790;-58
2022/09/23 03:30:10;;;;;;;;;0.00;0.00;;;25.29;101253.23;;;;117176;1191;25371;-56
2022/09/23 03:32:43;;;;;;;;;3.50;2.00;;;25.28;101252.96;;;;117062;1191;25657;-56
2022/09/23 03:35:12;;;;;;;;;1.50;1.00;;;25.25;101251.16;;;;117404;1191;25768;-56
2022/09/23 03:37:47;;;;;;;;;2.00;1.33;;;25.23;101250.20;;;;117104;1192;25200;-57
2022/09/23 03:40:29;;;;;;;;;3.00;3.00;;;25.22;101252.44;;;;117024;1192;24706;-58
2022/09/23 03:43:00;;;;;;;;;3.25;2.00;;;25.21;101252.12;;;;117039;1193;25508;-56
2022/09/23 03:45:31;;;;;;;;;3.00;1.25;;;25.20;101252.11;;;;117069;1191;25531;-56
2022/09/23 03:48:01;;;;;;;;;4.33;3.00;;;25.20;101249.86;;;;117015;1193;25355;-56
2022/09/23 03:50:29;;;;;;;;;1.75;1.25;;;25.17;101252.11;;;;117145;1192;26499;-56
2022/09/23 03:52:58;;;;;;;;;3.00;3.00;;;25.16;101248.91;;;;116975;1193;25082;-56
2022/09/23 03:55:27;;;;;;;;;1.75;1.75;;;25.16;101246.28;;;;117008;1192;25624;-57
2022/09/23 03:57:55;;;;;;;;;4.00;3.00;;;25.14;101245.30;;;;117064;1193;25098;-57
2022/09/23 04:00:24;;;;;;;;;2.00;2.00;;;25.14;101248.75;;;;117011;1193;25169;-57
2022/09/23 04:02:53;;;;;;;;;3.00;3.00;;;25.12;101248.99;;;;117023;1193;25404;-56
2022/09/23 04:05:22;;;;;;;;;3.00;3.00;;;25.14;101251.92;;;;117011;1194;25078;-57
2022/09/23 04:07:51;;;;;;;;;2.25;2.25;;;25.13;101257.81;;;;117042;1193;25147;-57
2022/09/23 04:10:19;;;;;;;;;2.00;2.00;;;25.14;101262.95;;;;117020;1193;25738;-58
2022/09/23 04:12:48;;;;;;;;;2.00;2.00;;;25.13;101264.58;;;;117107;1192;25329;-56
2022/09/23 04:15:17;;;;;;;;;2.75;2.75;;;25.12;101265.83;;;;117007;1193;25946;-56
2022/09/23 04:17:46;;;;;;;;;3.00;3.00;;;25.13;101267.34;;;;117025;1194;25461;-56
2022/09/23 04:20:16;;;;;;;;;3.00;2.00;;;25.13;101272.66;;;;117024;1193;25509;-57
2022/09/23 04:22:44;;;;;;;;;3.00;3.00;;;25.13;101273.54;;;;117093;1193;25226;-57
2022/09/23 04:25:13;;;;;;;;;2.50;2.50;;;25.13;101277.79;;;;117027;1192;25237;-57
2022/09/23 04:27:42;;;;;;;;;5.25;2.00;;;25.13;101283.65;;;;117068;1193;25302;-57
2022/09/23 04:30:12;;;;;;;;;5.00;2.67;;;25.12;101284.59;;;;117047;1193;25270;-60
2022/09/23 04:32:40;;;;;;;;;3.25;2.00;;;25.14;101285.81;;;;117074;1193;25008;-56
2022/09/23 04:35:09;;;;;;;;;3.25;3.25;;;25.13;101282.29;;;;117005;1193;24853;-58
2022/09/23 04:37:38;;;;;;;;;2.25;1.25;;;25.11;101290.06;;;;117018;1193;25540;-57
2022/09/23 04:40:08;;;;;;;;;4.00;2.00;;;25.14;101291.20;;;;117003;1193;25194;-57
2022/09/23 04:42:37;;;;;;;;;1.50;1.50;;;25.15;101291.88;;;;117080;1193;24939;-56
2022/09/23 04:45:07;;;;;;;;;3.00;3.00;;;25.15;101294.92;;;;117020;1193;25214;-58
2022/09/23 04:47:36;;;;;;;;;5.00;2.00;;;25.15;101296.44;;;;117050;1193;25122;-57
2022/09/23 04:50:05;;;;;;;;;2.50;2.00;;;25.15;101298.80;;;;117024;1194;25640;-55
2022/09/23 04:52:33;;;;;;;;;2.00;2.00;;;25.17;101299.54;;;;117012;1193;25531;-55
2022/09/23 04:55:03;;;;;;;;;4.00;2.50;;;25.15;101297.20;;;;116970;1194;25668;-57
2022/09/23 04:57:38;;;;;;;;;5.25;3.00;;;25.16;101299.52;;;;116991;1192;25520;-57
2022/09/23 05:00:08;;;;;;;;;4.33;2.67;;;25.19;101299.05;;;;117000;1193;25664;-56
2022/09/23 05:02:42;;;;;;;;;2.75;2.75;;;25.17;101296.95;;;;117050;1193;24924;-56
2022/09/23 05:05:11;;;;;;;;;3.00;3.00;;;25.18;101285.19;;;;117028;1193;25375;-62
2022/09/23 05:07:40;;;;;;;;;6.50;2.75;;;25.19;101295.98;;;;117066;1193;25550;-57
2022/09/23 05:10:09;;;;;;;;;3.00;3.00;;;25.26;101297.61;;;;117115;1193;24710;-57
2022/09/23 05:12:38;;;;;;;;;4.75;4.00;;;25.21;101296.65;;;;117013;1193;25468;-58
2022/09/23 05:15:07;;;;;;;;;3.33;2.33;;;25.17;101297.42;;;;117057;1193;24977;-58
2022/09/23 05:17:36;;;;;;;;;5.25;3.50;;;25.23;101300.77;;;;117123;1192;24769;-58
2022/09/23 05:20:05;;;;;;;;;3.50;3.50;;;25.23;101299.53;;;;117069;1191;25449;-59
2022/09/23 05:22:34;;;;;;;;;7.33;5.00;;;25.24;101290.85;;;;117060;1193;25385;-57
2022/09/23 05:25:03;;;;;;;;;8.75;5.75;;;25.27;101284.62;;;;117110;1192;25048;-58
2022/09/23 05:27:32;;;;;;;;;9.00;5.75;;;25.21;101295.11;;;;117103;1193;25476;-58
2022/09/23 05:30:01;;;;;;;;;6.33;4.67;;;25.28;101297.47;;;;117052;1193;25667;-61
2022/09/23 05:32:30;;;;;;;;;9.75;5.00;;;25.30;101298.23;;;;116960;1192;25667;-61
2022/09/23 05:34:59;;;;;;;;;6.67;4.00;;;25.33;101294.34;;;;117084;1191;25201;-57
2022/09/23 05:37:28;;;;;;;;;6.67;6.67;;;25.33;101292.42;;;;117052;1193;24935;-60
2022/09/23 05:39:56;;;;;;;;;6.75;6.75;;;25.32;101290.06;;;;117027;1193;25585;-59
2022/09/23 05:42:25;;;;;;;;;13.00;7.75;;;25.30;101292.77;;;;117107;1192;24890;-59
2022/09/23 05:44:55;;;;;;;;;9.50;5.75;;;25.31;101296.52;;;;117046;1192;25166;-59
2022/09/23 05:47:24;;;;;;;;;9.00;8.00;;;25.29;101297.45;;;;117055;1192;25359;-59
2022/09/23 05:49:53;;;;;;;;;5.75;4.50;;;25.28;101300.52;;;;117048;1193;25199;-59
2022/09/23 05:52:28;;;;;;;;;9.25;6.25;;;25.28;101303.46;;;;117068;1192;25190;-60
2022/09/23 05:54:57;;;;;;;;;7.50;6.50;;;25.29;101307.26;;;;117027;1193;25561;-59
2022/09/23 05:57:26;;;;;;;;;8.00;5.67;;;25.27;101309.84;;;;117043;1193;25515;-59
2022/09/23 05:59:54;;;;;;;;;9.33;6.33;;;25.26;101310.05;;;;117026;1193;25509;-59
2022/09/23 06:02:23;;;;;;;;;11.00;7.33;;;25.24;101312.45;;;;117100;1192;25000;-59
2022/09/23 06:04:52;;;;;;;;;14.25;6.25;;;25.23;101311.73;;;;117030;1193;25698;-59
2022/09/23 06:07:21;;;;;;;;;10.50;4.00;;;25.23;101315.77;;;;117043;1194;25357;-59
2022/09/23 06:09:52;;;;;;;;;7.50;4.25;;;25.24;101314.86;;;;117049;1192;24705;-59
2022/09/23 06:12:22;;;;;;;;;3.25;3.25;;;25.25;101315.73;;;;117043;1193;25382;-59
2022/09/23 06:14:51;;;;;;;;;6.67;4.33;;;25.27;101316.01;;;;117023;1194;25162;-59
2022/09/23 06:17:20;;;;;;;;;5.67;5.67;;;25.26;101313.48;;;;117060;1192;25531;-59
2022/09/23 06:19:48;;;;;;;;;8.50;4.00;;;25.26;101312.74;;;;117006;1193;25180;-58
2022/09/23 06:22:17;;;;;;;;;6.00;5.50;;;25.25;101310.77;;;;117066;1193;25765;-58
2022/09/23 06:24:46;;;;;;;;;3.00;3.00;;;25.26;101313.36;;;;117009;1193;25694;-59
2022/09/23 06:27:14;;;;;;;;;2.33;0.67;;;25.25;101311.34;;;;117057;1193;25812;-59
2022/09/23 06:29:43;;;;;;;;;6.00;5.25;;;25.24;101308.98;;;;117064;1193;24961;-59
2022/09/23 06:32:12;;;;;;;;;7.00;6.00;;;25.25;101310.33;;;;117017;1193;25570;-60
2022/09/23 06:34:44;;;;;;;;;5.00;4.25;;;25.26;101311.23;;;;116859;1193;25431;-58
2022/09/23 06:37:19;;;;;;;;;7.67;5.00;;;25.28;101307.42;;;;117017;1194;24902;-59
2022/09/23 06:39:48;;;;;;;;;5.33;3.00;;;25.30;101311.58;;;;117027;1194;25408;-59
2022/09/23 06:42:16;;;;;;;;;6.00;6.00;;;25.29;101311.13;;;;117063;1194;25672;-59
2022/09/23 06:44:45;;;;;;;;;7.67;4.67;;;25.29;101311.91;;;;117037;1194;25513;-59
2022/09/23 06:47:14;;;;;;;;;4.00;4.00;;;25.29;101315.38;;;;117042;1194;25259;-59
2022/09/23 06:49:43;;;;;;;;;6.50;4.25;;;25.29;101316.78;;;;117033;1193;25432;-59
2022/09/23 06:52:11;;;;;;;;;6.50;5.00;;;25.30;101317.64;;;;117062;1194;24922;-58
2022/09/23 06:54:40;;;;;;;;;5.75;4.75;;;25.31;101319.84;;;;117059;1193;25327;-57
2022/09/23 06:57:09;;;;;;;;;6.67;6.67;;;25.30;101322.76;;;;117072;1193;25085;-58
2022/09/23 06:59:38;;;;;;;;;8.00;6.00;;;25.33;101319.52;;;;117007;1192;25182;-57
2022/09/23 07:02:10;;;;;;;;;4.33;3.67;;;25.32;101319.69;;;;117036;1193;25052;-59
2022/09/23 07:04:39;;;;;;;;;6.50;4.25;;;25.35;101322.56;;;;117004;1193;25544;-59
2022/09/23 07:07:10;;;;;;;;;3.67;2.67;;;25.37;101321.44;;;;117049;1194;25581;-59
2022/09/23 07:09:39;;;;;;;;;5.25;4.25;;;25.39;101320.59;;;;117063;1194;25766;-61
2022/09/23 07:12:08;;;;;;;;;5.75;3.50;;;25.41;101324.31;;;;117057;1194;25305;-65
2022/09/23 07:14:37;;;;;;;;;5.50;3.25;;;25.44;101321.20;;;;117043;1194;25183;-65
2022/09/23 07:17:05;;;;;;;;;6.00;4.75;;;25.45;101323.75;;;;117048;1193;25576;-66
2022/09/23 07:19:35;;;;;;;;;6.75;5.75;;;25.47;101320.10;;;;117064;1194;24899;-60
2022/09/23 07:22:04;;;;;;;;;5.00;4.00;;;25.50;101320.98;;;;116902;1194;24914;-58
2022/09/23 07:24:33;;;;;;;;;4.50;4.00;;;25.52;101319.83;;;;116891;1194;25319;-58
2022/09/23 07:27:01;;;;;;;;;4.00;3.00;;;25.55;101316.45;;;;117039;1193;25491;-58
2022/09/23 07:29:30;;;;;;;;;6.00;5.00;;;25.57;101319.25;;;;117014;1194;25128;-58
2022/09/23 07:32:13;;;;;;;;;3.00;3.00;;;25.63;101315.63;;;;116981;1194;25138;-58
2022/09/23 07:34:42;;;;;;;;;3.33;2.67;;;25.65;101314.88;;;;117070;1193;25674;-58
2022/09/23 07:37:10;;;;;;;;;6.75;3.00;;;25.67;101317.50;;;;117036;1194;25698;-59
2022/09/23 07:39:40;;;;;;;;;7.33;4.00;;;25.69;101317.68;;;;117034;1194;25128;-59
2022/09/23 07:42:11;;;;;;;;;2.00;1.75;;;25.70;101317.98;;;;117040;1192;24895;-59
2022/09/23 07:44:45;;;;;;;;;6.25;5.00;;;25.72;101323.17;;;;116996;1193;24681;-58
2022/09/23 07:47:16;;;;;;;;;5.00;3.25;;;25.73;101318.85;;;;117032;1193;25208;-60
2022/09/23 07:49:45;;;;;;;;;2.00;2.00;;;25.75;101321.63;;;;117040;1193;25052;-58
2022/09/23 07:52:13;;;;;;;;;5.00;3.33;;;25.77;101325.27;;;;117065;1194;24788;-58
2022/09/23 07:54:46;;;;;;;;;4.00;4.00;;;25.79;101326.31;;;;117067;1192;24785;-58
2022/09/23 07:57:15;;;;;;;;;6.00;4.00;;;25.79;101325.26;;;;117023;1194;24851;-58
2022/09/23 07:59:44;;;;;;;;;4.50;3.00;;;25.81;101322.55;;;;117065;1193;25681;-57
2022/09/23 08:02:15;;;;;;;;;5.75;4.00;;;25.81;101321.48;;;;117050;1193;24876;-57
2022/09/23 08:04:45;;;;;;;;;6.25;4.25;;;25.81;101318.92;;;;117070;1193;25200;-59
2022/09/23 08:07:15;;;;;;;;;4.25;2.50;;;25.82;101316.13;;;;117032;1193;25526;-58
2022/09/23 08:09:44;;;;;;;;;2.00;2.00;;;25.84;101318.55;;;;117063;1194;25286;-59
2022/09/23 08:12:16;;;;;;;;;5.67;3.00;;;25.84;101321.65;;;;117042;1194;25469;-58
2022/09/23 08:14:45;;;;;;;;;3.75;3.50;;;25.83;101321.42;;;;117031;1193;25520;-59
2022/09/23 08:17:13;;;;;;;;;6.00;3.75;;;25.83;101320.95;;;;117014;1194;24823;-58
2022/09/23 08:19:42;;;;;;;;;1.50;1.50;;;25.80;101320.42;;;;117002;1193;25708;-58
2022/09/23 08:22:11;;;;;;;;;7.00;4.00;;;25.83;101311.46;;;;117036;1193;25187;-58
2022/09/23 08:24:39;;;;;;;;;2.25;2.25;;;25.83;101308.98;;;;117055;1193;25131;-59
2022/09/23 08:27:09;;;;;;;;;2.00;2.00;;;25.84;101301.64;;;;117015;1194;24869;-59
2022/09/23 08:29:38;;;;;;;;;5.33;2.33;;;25.85;101305.33;;;;117070;1193;25026;-59
2022/09/23 08:32:07;;;;;;;;;4.00;3.00;;;25.86;101306.52;;;;117031;1193;24928;-57
2022/09/23 08:34:36;;;;;;;;;4.00;2.00;;;25.86;101313.33;;;;117051;1193;25360;-58
2022/09/23 08:37:09;;;;;;;;;4.75;4.00;;;25.85;101309.76;;;;117018;1194;25271;-57
2022/09/23 08:39:38;;;;;;;;;5.00;5.00;;;25.85;101305.78;;;;117037;1193;25747;-58
2022/09/23 08:42:31;;;;;;;;;5.50;4.75;;;25.85;101308.90;;;;116873;1194;25735;-57
2022/09/23 08:45:02;;;;;;;;;3.25;2.00;;;25.90;101306.64;;;;117064;1193;25008;-59
2022/09/23 08:47:54;;;;;;;;;4.00;4.00;;;25.92;101304.10;;;;117028;1192;25240;-58
2022/09/23 08:50:28;;;;;;;;;4.00;3.00;;;25.92;101306.36;;;;117041;1193;24980;-59
2022/09/23 08:53:08;;;;;;;;;4.00;3.67;;;25.90;101304.98;;;;117049;1193;24910;-59
2022/09/23 08:55:40;;;;;;;;;3.25;3.00;;;25.93;101301.52;;;;117035;1193;25022;-59
2022/09/23 08:58:28;;;;;;;;;3.33;3.33;;;25.91;101303.41;;;;117054;1193;25745;-59
2022/09/23 09:01:17;;;;;;;;;3.50;2.75;;;25.93;101288.98;;;;116998;1193;25317;-58
2022/09/23 09:03:47;;;;;;;;;4.33;3.67;;;25.92;101297.35;;;;117052;1191;25467;-63
2022/09/23 09:06:25;;;;;;;;;4.67;4.67;;;25.91;101293.01;;;;117101;1191;25508;-59
2022/09/23 09:08:58;;;;;;;;;6.00;3.00;;;25.90;101294.05;;;;117112;1191;25464;-58
2022/09/23 09:11:36;;;;;;;;;3.25;3.25;;;25.92;101287.83;;;;117127;1193;25163;-59
2022/09/23 09:14:34;;;;;;;;;4.25;3.25;;;25.94;101289.22;;;;117112;1192;25120;-59
2022/09/23 09:17:20;;;;;;;;;4.00;3.50;;;25.97;101282.52;;;;117114;1191;25662;-59
2022/09/23 09:20:02;;;;;;;;;2.00;2.00;;;25.99;101278.65;;;;117103;1193;24788;-58
2022/09/23 09:22:33;;;;;;;;;4.50;3.00;;;25.99;101279.08;;;;117122;1192;25552;-59
2022/09/23 09:25:18;;;;;;;;;0.00;0.00;;;25.97;101286.08;;;;117132;1193;25059;-59
2022/09/23 09:27:47;;;;;;;;;2.67;2.67;;;25.98;101288.08;;;;117109;1192;24766;-59
2022/09/23 09:30:16;;;;;;;;;5.25;3.00;;;25.99;101286.21;;;;117125;1193;25672;-59
2022/09/23 09:32:59;;;;;;;;;2.50;2.50;;;25.97;101286.59;;;;117105;1193;25727;-58
2022/09/23 09:35:40;;;;;;;;;3.00;2.00;;;25.97;101285.64;;;;117096;1192;25320;-58
2022/09/23 09:38:08;;;;;;;;;4.25;2.75;;;25.99;101289.60;;;;117121;1192;24981;-58
2022/09/23 09:40:44;;;;;;;;;5.00;3.75;;;25.97;101292.81;;;;117008;1192;25500;-58
2022/09/23 09:43:22;;;;;;;;;3.00;3.00;;;25.97;101289.18;;;;117137;1192;24958;-59
2022/09/23 09:46:21;;;;;;;;;2.25;2.25;;;25.96;101290.00;;;;117089;1191;25129;-59
2022/09/23 09:49:01;;;;;;;;;4.50;2.00;;;25.98;101285.99;;;;117096;1193;24864;-58
2022/09/23 09:51:30;;;;;;;;;6.00;3.25;;;25.98;101283.18;;;;117086;1191;24987;-59
2022/09/23 09:54:26;;;;;;;;;4.33;2.67;;;25.97;101282.19;;;;117022;1193;25383;-58
2022/09/23 09:56:55;;;;;;;;;4.00;3.75;;;25.99;101277.25;;;;117154;1191;25700;-58
2022/09/23 09:59:26;;;;;;;;;4.25;2.00;;;25.95;101277.35;;;;117121;1193;25169;-58
2022/09/23 10:02:31;;;;;;;;;3.00;3.00;;;25.97;101278.73;;;;117096;1192;25353;-59
2022/09/23 10:05:06;;;;;;;;;4.00;3.00;;;26.03;101271.66;;;;117103;1192;24951;-58
2022/09/23 10:07:35;;;;;;;;;2.25;1.50;;;26.04;101272.83;;;;117088;1192;25094;-57
2022/09/23 10:10:33;;;;;;;;;2.75;2.75;;;26.03;101270.01;;;;117036;1193;25395;-59
2022/09/23 10:13:14;;;;;;;;;3.25;3.00;;;26.05;101264.34;;;;116948;1193;26054;-58
2022/09/23 10:15:43;;;;;;;;;2.50;2.50;;;26.05;101269.06;;;;117029;1193;25639;-60
2022/09/23 10:18:26;;;;;;;;;2.50;2.50;;;26.05;101265.10;;;;117046;1192;25207;-58
2022/09/23 10:21:15;;;;;;;;;2.00;2.00;;;26.04;101266.06;;;;117068;1193;24949;-59
2022/09/23 10:23:46;;;;;;;;;4.50;3.75;;;26.02;101261.23;;;;117043;1192;25567;-58
2022/09/23 10:26:18;;;;;;;;;3.50;3.00;;;26.00;101256.45;;;;117110;1192;25672;-58
2022/09/23 10:28:54;;;;;;;;;3.50;2.75;;;25.98;101256.30;;;;116993;1193;24750;-58
2022/09/23 10:31:33;;;;;;;;;4.33;2.67;;;25.98;101254.48;;;;117122;1191;24776;-58
2022/09/23 10:34:23;;;;;;;;;3.33;3.00;;;25.97;101253.89;;;;117022;1193;24857;-58
2022/09/23 10:37:06;;;;;;;;;3.33;3.33;;;26.00;101256.17;;;;117130;1193;25111;-58
2022/09/23 10:48:11;;;;;;;;;1.25;1.25;;;25.92;101252.40;;;;117119;1193;25219;-59
2022/09/23 10:50:47;;;;;;;;;2.00;1.50;;;25.88;101246.94;;;;117100;1192;25328;-59
2022/09/23 10:53:22;;;;;;;;;2.33;2.00;;;25.89;101243.20;;;;117024;1193;25003;-59
2022/09/23 10:56:15;;;;;;;;;2.25;2.25;;;25.89;101236.11;;;;117073;1193;25026;-59
2022/09/23 10:58:44;;;;;;;;;3.25;3.25;;;25.89;101235.39;;;;117069;1192;25546;-59
2022/09/23 11:01:28;;;;;;;;;2.00;2.00;;;25.86;101237.41;;;;117080;1191;24868;-59
2022/09/23 11:04:17;;;;;;;;;2.25;1.50;;;25.86;101238.19;;;;117106;1191;25561;-59
2022/09/23 11:07:14;;;;;;;;;4.75;2.25;;;25.85;101236.77;;;;117091;1192;25715;-59
2022/09/23 11:10:01;;;;;;;;;3.50;3.00;;;25.83;101235.96;;;;117066;1191;25078;-59
2022/09/23 11:12:49;;;;;;;;;1.75;1.50;;;25.80;101229.90;;;;117109;1193;25058;-57
2022/09/23 11:15:37;;;;;;;;;1.50;1.50;;;25.82;101228.66;;;;117102;1192;25127;-58
2022/09/23 11:18:44;;;;;;;;;4.00;2.67;;;25.84;101230.13;;;;117104;1193;25071;-58
2022/09/23 11:21:44;;;;;;;;;3.33;3.00;;;25.85;101228.09;;;;116712;1197;25438;-59
2022/09/23 11:24:34;;;;;;;;;3.67;3.00;;;25.89;101228.61;;;;117106;1193;24836;-59
2022/09/23 11:27:24;;;;;;;;;2.00;2.00;;;25.88;101224.19;;;;117115;1193;24881;-59
2022/09/23 11:30:22;;;;;;;;;2.25;2.25;;;25.83;101221.77;;;;117112;1191;25479;-59
2022/09/23 11:33:12;;;;;;;;;3.67;3.67;;;25.84;101219.64;;;;116956;1194;25109;-59
2022/09/23 11:36:07;;;;;;;;;2.00;2.00;;;25.85;101211.09;;;;117137;1192;25016;-59
2022/09/23 11:38:42;;;;;;;;;2.50;1.00;;;25.84;101211.02;;;;117067;1193;25694;-57
2022/09/23 11:41:24;;;;;;;;;4.00;3.50;;;25.81;101206.90;;;;117090;1193;24781;-58
2022/09/23 11:44:07;;;;;;;;;1.75;1.75;;;25.81;101205.80;;;;117112;1192;25290;-59
2022/09/23 11:47:08;;;;;;;;;2.75;2.75;;;25.81;101200.81;;;;117097;1193;24985;-59
2022/09/23 11:49:46;;;;;;;;;6.50;5.00;;;25.86;101203.73;;;;117029;1192;24814;-60
2022/09/23 11:52:31;;;;;;;;;4.00;2.00;;;25.85;101202.40;;;;117070;1191;25178;-60
2022/09/23 11:55:14;;;;;;;;;4.00;3.00;;;25.82;101199.09;;;;117030;1193;25756;-60
2022/09/23 11:58:04;;;;;;;;;2.25;2.25;;;25.82;101194.89;;;;117082;1192;25257;-59
2022/09/23 12:01:07;;;;;;;;;2.00;2.00;;;25.84;101192.36;;;;117113;1191;24938;-59
2022/09/23 12:04:05;;;;;;;;;3.50;3.00;;;25.85;101190.98;;;;117060;1192;24925;-60
2022/09/23 12:06:51;;;;;;;;;2.25;2.00;;;25.91;101189.15;;;;117002;1193;25077;-60
2022/09/23 12:09:25;;;;;;;;;2.00;2.00;;;25.89;101186.91;;;;117032;1193;25216;-59
2022/09/23 12:12:29;;;;;;;;;1.67;1.67;;;25.88;101186.33;;;;116997;1194;25205;-58
2022/09/23 12:15:07;;;;;;;;;5.25;4.25;;;25.87;101182.91;;;;117031;1193;25459;-59
2022/09/23 12:18:20;;;;;;;;;3.67;3.67;;;25.83;101181.02;;;;116998;1193;25522;-60
2022/09/23 12:21:09;;;;;;;;;4.75;3.50;;;25.84;101182.21;;;;116755;1198;25649;-59
2022/09/23 12:24:14;;;;;;;;;2.75;2.00;;;25.85;101182.31;;;;116730;1197;25415;-60
2022/09/23 12:26:50;;;;;;;;;7.75;3.50;;;25.81;101184.54;;;;117031;1194;25402;-58
2022/09/23 12:29:19;;;;;;;;;3.33;3.33;;;25.76;101182.67;;;;117047;1193;25074;-59
2022/09/23 12:31:48;;;;;;;;;3.50;3.50;;;25.73;101182.92;;;;116886;1193;25851;-59
2022/09/23 12:34:40;;;;;;;;;3.67;3.00;;;25.71;101182.19;;;;117045;1193;25564;-62
2022/09/23 12:37:08;;;;;;;;;5.00;4.75;;;25.72;101180.40;;;;116859;1194;25081;-60
2022/09/23 12:39:38;;;;;;;;;5.00;3.00;;;25.70;101178.20;;;;116806;1194;25147;-60
2022/09/23 12:42:18;;;;;;;;;3.75;3.50;;;25.67;101174.21;;;;117039;1194;25199;-59
2022/09/23 12:44:47;;;;;;;;;3.67;3.67;;;25.65;101177.61;;;;117027;1194;24859;-60
2022/09/23 12:47:20;;;;;;;;;4.25;4.00;;;25.63;101169.66;;;;117026;1193;25755;-58
2022/09/23 12:49:49;;;;;;;;;3.00;3.00;;;25.63;101168.05;;;;117040;1193;26160;-58